Time;durP1;ratioP1;P1;durP2;ratioP2;P2;SDS_P1;SDS_P2;PMS_P1;PMS_P2;Temp;Humidity;BMP_temperature;BMP_pressure;BME280_temperature;BME280_humidity;BME280_pressure;Samples;Min_cycle;Max_cycle;Signal;HPM_P1;HPM_P2
2022/03/25 00:01:22;;;;;;;212.90;105.25;;;;;;;;;;5110571;27;20059;-72
2022/03/25 00:03:48;;;;;;;174.52;85.43;;;;;;;;;;5112468;27;20476;-70
2022/03/25 00:06:13;;;;;;;146.68;71.20;;;;;;;;;;5115622;27;20425;-70
2022/03/25 00:08:38;;;;;;;113.47;55.97;;;;;;;;;;5114559;27;20032;-70
2022/03/25 00:11:04;;;;;;;164.77;86.32;;;;;;;;;;5110674;27;20361;-73
2022/03/25 00:13:29;;;;;;;185.85;95.40;;;;;;;;;;5113612;27;20506;-70
2022/03/25 00:15:56;;;;;;;318.77;154.85;;;;;;;;;;5118785;27;20046;-72
2022/03/25 00:18:21;;;;;;;371.88;174.48;;;;;;;;;;5106741;27;20155;-73
2022/03/25 00:20:48;;;;;;;329.38;155.90;;;;;;;;;;5115609;27;20106;-73
2022/03/25 00:23:14;;;;;;;236.98;114.90;;;;;;;;;;5115998;27;20030;-74
2022/03/25 00:25:39;;;;;;;263.58;132.38;;;;;;;;;;5118021;27;20042;-74
2022/03/25 00:28:05;;;;;;;229.30;116.03;;;;;;;;;;5110930;27;20032;-72
2022/03/25 00:30:30;;;;;;;190.30;92.68;;;;;;;;;;5113260;27;20038;-73
2022/03/25 00:32:55;;;;;;;182.73;97.10;;;;;;;;;;5116464;27;20040;-74
2022/03/25 00:35:21;;;;;;;169.73;85.25;;;;;;;;;;5108371;27;20023;-71
2022/03/25 00:37:47;;;;;;;133.13;65.07;;;;;;;;;;5106106;27;20043;-71
2022/03/25 00:40:12;;;;;;;100.57;51.60;;;;;;;;;;5118087;27;20418;-71
2022/03/25 00:42:38;;;;;;;109.43;59.10;;;;;;;;;;5118210;27;20027;-73
2022/03/25 00:45:03;;;;;;;219.43;109.07;;;;;;;;;;5114957;27;20200;-72
2022/03/25 00:47:29;;;;;;;230.57;111.90;;;;;;;;;;5118969;27;20022;-71
2022/03/25 00:49:55;;;;;;;192.50;93.00;;;;;;;;;;5115150;27;20602;-71
2022/03/25 00:52:20;;;;;;;223.77;112.57;;;;;;;;;;5116157;27;20028;-70
2022/03/25 00:54:45;;;;;;;188.70;95.18;;;;;;;;;;5110322;27;20025;-73
2022/03/25 00:57:11;;;;;;;205.50;106.28;;;;;;;;;;5111863;27;20037;-70
2022/03/25 00:59:36;;;;;;;233.30;109.63;;;;;;;;;;5112608;27;21235;-71
2022/03/25 01:02:02;;;;;;;200.45;95.25;;;;;;;;;;5116587;27;20343;-71
2022/03/25 01:04:28;;;;;;;138.45;68.80;;;;;;;;;;5114559;27;20023;-71
2022/03/25 01:06:55;;;;;;;96.95;46.47;;;;;;;;;;5120050;27;20023;-72
2022/03/25 01:09:21;;;;;;;115.40;55.95;;;;;;;;;;5112606;27;20035;-71
2022/03/25 01:11:47;;;;;;;138.10;71.15;;;;;;;;;;5106148;27;20156;-71
2022/03/25 01:14:12;;;;;;;119.30;59.55;;;;;;;;;;5109129;27;20015;-74
2022/03/25 01:16:37;;;;;;;108.20;55.30;;;;;;;;;;5106520;27;20360;-71
2022/03/25 01:19:03;;;;;;;107.78;54.90;;;;;;;;;;5104450;27;20114;-71
2022/03/25 01:21:29;;;;;;;90.78;47.33;;;;;;;;;;5114979;27;20026;-71
2022/03/25 01:23:56;;;;;;;104.40;56.17;;;;;;;;;;5114360;27;20421;-71
2022/03/25 01:26:21;;;;;;;139.68;72.90;;;;;;;;;;5117193;27;20026;-72
2022/03/25 01:28:47;;;;;;;121.35;63.53;;;;;;;;;;5113000;27;20118;-73
2022/03/25 01:31:13;;;;;;;132.90;64.70;;;;;;;;;;5117657;27;20075;-72
2022/03/25 01:33:38;;;;;;;128.35;60.38;;;;;;;;;;5106868;27;20417;-73
2022/03/25 01:36:04;;;;;;;126.03;60.97;;;;;;;;;;5118378;27;20087;-72
2022/03/25 01:38:30;;;;;;;142.55;70.75;;;;;;;;;;5114283;27;20029;-71
2022/03/25 01:40:55;;;;;;;147.98;72.72;;;;;;;;;;5115158;27;20031;-70
2022/03/25 01:43:21;;;;;;;139.15;73.28;;;;;;;;;;5110526;27;20027;-72
2022/03/25 01:45:46;;;;;;;111.20;58.22;;;;;;;;;;5106041;27;20015;-71
2022/03/25 01:48:13;;;;;;;109.38;56.67;;;;;;;;;;5104547;27;20115;-74
2022/03/25 01:50:40;;;;;;;116.75;61.03;;;;;;;;;;5114969;28;20040;-72
2022/03/25 01:53:15;;;;;;;150.82;78.15;;;;;;;;;;5115252;28;20034;-72
2022/03/25 01:55:46;;;;;;;237.18;117.75;;;;;;;;;;5115918;28;20470;-71
2022/03/25 01:58:12;;;;;;;185.20;88.38;;;;;;;;;;5107061;28;20037;-71
2022/03/25 02:00:37;;;;;;;178.73;89.57;;;;;;;;;;5111130;28;20464;-70
2022/03/25 02:03:02;;;;;;;169.35;86.22;;;;;;;;;;5114814;28;20102;-72
2022/03/25 02:05:28;;;;;;;171.50;85.43;;;;;;;;;;5104733;27;20156;-70
2022/03/25 02:07:53;;;;;;;143.25;69.93;;;;;;;;;;5111789;28;20034;-71
2022/03/25 02:10:18;;;;;;;115.13;56.97;;;;;;;;;;5118471;27;20042;-69
2022/03/25 02:12:44;;;;;;;100.45;54.35;;;;;;;;;;5109577;27;20071;-74
2022/03/25 02:15:09;;;;;;;101.28;53.33;;;;;;;;;;5107686;27;20031;-72
2022/03/25 02:17:34;;;;;;;103.85;52.72;;;;;;;;;;5108360;27;20038;-71
2022/03/25 02:20:00;;;;;;;119.53;64.10;;;;;;;;;;5108484;27;20031;-70
2022/03/25 02:22:25;;;;;;;114.05;56.38;;;;;;;;;;5108402;27;20030;-72
2022/03/25 02:24:51;;;;;;;103.90;52.28;;;;;;;;;;5108878;27;20052;-74
2022/03/25 02:27:17;;;;;;;88.57;45.17;;;;;;;;;;5109750;27;20018;-72
2022/03/25 02:29:43;;;;;;;73.80;41.83;;;;;;;;;;5113986;27;20430;-72
2022/03/25 02:32:08;;;;;;;67.38;36.10;;;;;;;;;;5120237;27;20031;-73
2022/03/25 02:34:33;;;;;;;57.65;30.10;;;;;;;;;;5121561;27;20023;-71
2022/03/25 02:37:00;;;;;;;58.65;34.65;;;;;;;;;;5120757;27;20031;-70
2022/03/25 02:39:27;;;;;;;62.13;34.25;;;;;;;;;;5116229;27;20497;-70
2022/03/25 02:41:53;;;;;;;49.20;28.52;;;;;;;;;;5110898;27;20164;-70
2022/03/25 02:44:18;;;;;;;42.95;25.80;;;;;;;;;;5117159;27;20105;-70
2022/03/25 02:46:43;;;;;;;32.33;19.00;;;;;;;;;;5108137;27;20038;-71
2022/03/25 02:49:09;;;;;;;33.10;19.45;;;;;;;;;;5114156;27;20055;-71
2022/03/25 02:51:34;;;;;;;43.53;20.17;;;;;;;;;;5119568;27;20046;-71
2022/03/25 02:54:00;;;;;;;36.90;22.35;;;;;;;;;;5121585;27;20024;-70
2022/03/25 02:56:25;;;;;;;45.45;25.55;;;;;;;;;;5108471;27;20513;-70
2022/03/25 02:58:51;;;;;;;57.30;32.80;;;;;;;;;;5119125;27;20080;-70
2022/03/25 03:01:16;;;;;;;55.20;30.63;;;;;;;;;;5119175;27;20438;-71
2022/03/25 03:03:41;;;;;;;61.28;33.63;;;;;;;;;;5118351;27;20047;-72
2022/03/25 03:06:07;;;;;;;87.05;48.15;;;;;;;;;;5119334;27;20041;-72
2022/03/25 03:08:34;;;;;;;45.58;25.83;;;;;;;;;;5117106;27;20087;-71
2022/03/25 03:10:59;;;;;;;61.08;34.45;;;;;;;;;;5108015;27;20042;-70
2022/03/25 03:13:24;;;;;;;58.33;30.23;;;;;;;;;;5118120;27;20032;-70
2022/03/25 03:15:50;;;;;;;57.75;31.50;;;;;;;;;;5116414;27;20021;-72
2022/03/25 03:18:16;;;;;;;76.32;39.80;;;;;;;;;;5118145;27;20426;-71
2022/03/25 03:20:42;;;;;;;64.03;33.15;;;;;;;;;;5116427;27;20035;-71
2022/03/25 03:23:07;;;;;;;48.53;24.38;;;;;;;;;;5115953;27;20081;-72
2022/03/25 03:25:33;;;;;;;51.60;26.58;;;;;;;;;;5111243;27;20023;-71
2022/03/25 03:27:59;;;;;;;51.90;25.38;;;;;;;;;;5112741;27;20027;-71
2022/03/25 03:30:24;;;;;;;53.42;25.85;;;;;;;;;;5108337;27;20038;-71
2022/03/25 03:32:55;;;;;;;51.47;27.40;;;;;;;;;;5113487;27;20011;-71
2022/03/25 03:35:20;;;;;;;60.78;27.70;;;;;;;;;;5115325;27;20031;-70
2022/03/25 03:37:46;;;;;;;46.53;24.40;;;;;;;;;;5116200;27;20450;-73
2022/03/25 03:40:12;;;;;;;44.53;21.55;;;;;;;;;;5116021;27;20031;-70
2022/03/25 03:42:40;;;;;;;41.60;22.58;;;;;;;;;;5109709;27;20111;-73
2022/03/25 03:45:10;;;;;;;40.17;23.08;;;;;;;;;;5113938;27;20101;-69
2022/03/25 03:47:36;;;;;;;46.53;24.73;;;;;;;;;;5118682;27;20460;-71
2022/03/25 03:50:03;;;;;;;43.95;25.40;;;;;;;;;;5105600;27;20051;-70
2022/03/25 03:52:29;;;;;;;55.05;27.55;;;;;;;;;;5108309;27;20027;-70
2022/03/25 03:54:54;;;;;;;58.35;27.35;;;;;;;;;;5114775;27;20042;-73
2022/03/25 03:57:19;;;;;;;56.10;28.92;;;;;;;;;;5118585;27;20026;-70
2022/03/25 03:59:45;;;;;;;49.40;28.13;;;;;;;;;;5107024;27;20046;-69
2022/03/25 04:02:10;;;;;;;46.38;26.27;;;;;;;;;;5118529;27;20445;-69
2022/03/25 04:04:36;;;;;;;39.92;22.80;;;;;;;;;;5115959;27;20053;-69
2022/03/25 04:07:01;;;;;;;39.40;21.33;;;;;;;;;;5118978;27;20307;-69
2022/03/25 04:09:27;;;;;;;50.35;25.92;;;;;;;;;;5115289;27;20030;-69
2022/03/25 04:11:53;;;;;;;50.95;26.80;;;;;;;;;;5109338;27;20043;-70
2022/03/25 04:14:19;;;;;;;55.55;27.63;;;;;;;;;;5117925;27;20041;-73
2022/03/25 04:16:44;;;;;;;45.03;24.08;;;;;;;;;;5115910;27;20366;-74
2022/03/25 04:19:09;;;;;;;42.45;22.90;;;;;;;;;;5116080;27;20027;-74
2022/03/25 04:21:35;;;;;;;78.75;39.33;;;;;;;;;;5116617;27;20034;-70
2022/03/25 04:24:00;;;;;;;119.40;52.92;;;;;;;;;;5115245;27;20119;-73
2022/03/25 04:26:26;;;;;;;86.32;43.33;;;;;;;;;;5116701;27;20049;-71
2022/03/25 04:28:51;;;;;;;60.03;31.00;;;;;;;;;;5110941;27;20027;-72
2022/03/25 04:31:16;;;;;;;48.28;25.58;;;;;;;;;;5115721;27;21098;-72
2022/03/25 04:33:42;;;;;;;42.55;25.00;;;;;;;;;;5118515;27;20027;-73
2022/03/25 04:36:08;;;;;;;43.40;24.50;;;;;;;;;;5114460;27;20037;-74
2022/03/25 04:38:33;;;;;;;53.45;30.15;;;;;;;;;;5116269;27;20023;-70
2022/03/25 04:40:59;;;;;;;71.72;36.75;;;;;;;;;;5117764;27;20129;-70
2022/03/25 04:43:24;;;;;;;80.15;42.90;;;;;;;;;;5107405;27;20126;-70
2022/03/25 04:45:50;;;;;;;82.13;42.78;;;;;;;;;;5114724;27;20041;-69
2022/03/25 04:48:15;;;;;;;75.32;39.70;;;;;;;;;;5106019;27;20503;-71
2022/03/25 04:50:41;;;;;;;95.65;52.42;;;;;;;;;;5105775;27;20079;-70
2022/03/25 04:53:06;;;;;;;79.00;43.75;;;;;;;;;;5107035;27;20027;-70
2022/03/25 04:55:32;;;;;;;78.75;44.50;;;;;;;;;;5105288;27;20442;-69
2022/03/25 04:57:57;;;;;;;88.50;51.90;;;;;;;;;;5104613;27;20066;-70
2022/03/25 05:00:23;;;;;;;94.40;50.17;;;;;;;;;;5114229;27;20035;-70
2022/03/25 05:02:48;;;;;;;84.43;39.00;;;;;;;;;;5107543;27;20076;-72
2022/03/25 05:05:14;;;;;;;105.68;54.35;;;;;;;;;;5116855;27;20031;-71
2022/03/25 05:07:40;;;;;;;78.20;40.22;;;;;;;;;;5115334;27;20466;-73
2022/03/25 05:10:06;;;;;;;70.20;35.30;;;;;;;;;;5116179;27;20019;-71
2022/03/25 05:12:31;;;;;;;111.10;57.55;;;;;;;;;;5116408;27;20349;-71
2022/03/25 05:14:57;;;;;;;62.05;38.03;;;;;;;;;;5114152;27;20445;-71
2022/03/25 05:17:22;;;;;;;543.90;240.90;;;;;;;;;;5114257;27;20387;-70
2022/03/25 05:19:47;;;;;;;689.83;304.38;;;;;;;;;;5115606;27;20047;-72
2022/03/25 05:22:14;;;;;;;201.45;78.53;;;;;;;;;;5114523;27;20023;-71
2022/03/25 05:24:39;;;;;;;332.15;130.23;;;;;;;;;;5113970;27;20023;-71
2022/03/25 05:27:05;;;;;;;339.80;135.85;;;;;;;;;;5123080;27;20031;-70
2022/03/25 05:29:30;;;;;;;580.72;283.23;;;;;;;;;;5120567;27;20056;-73
2022/03/25 05:31:56;;;;;;;508.17;228.52;;;;;;;;;;5107683;27;20343;-70
2022/03/25 05:34:22;;;;;;;470.42;213.23;;;;;;;;;;5100188;27;20031;-71
2022/03/25 05:36:47;;;;;;;226.63;87.40;;;;;;;;;;5102497;27;20023;-71
2022/03/25 05:39:14;;;;;;;285.05;123.70;;;;;;;;;;5101390;27;20034;-74
2022/03/25 05:41:40;;;;;;;817.28;522.20;;;;;;;;;;5102583;27;20038;-75
2022/03/25 05:44:06;;;;;;;296.13;135.05;;;;;;;;;;5098188;27;20038;-72
2022/03/25 05:46:32;;;;;;;192.38;94.53;;;;;;;;;;5101542;27;20371;-74
2022/03/25 05:48:58;;;;;;;187.80;89.30;;;;;;;;;;5100481;27;20039;-76
2022/03/25 05:51:23;;;;;;;265.15;133.05;;;;;;;;;;5105981;27;20027;-74
2022/03/25 05:53:49;;;;;;;217.27;114.35;;;;;;;;;;5107614;27;20027;-71
2022/03/25 05:56:14;;;;;;;221.75;116.40;;;;;;;;;;5104334;28;20031;-72
2022/03/25 05:58:40;;;;;;;92.22;45.85;;;;;;;;;;5102954;28;20113;-72
2022/03/25 06:01:07;;;;;;;116.93;59.80;;;;;;;;;;5103767;28;20074;-73
2022/03/25 06:03:33;;;;;;;64.47;37.97;;;;;;;;;;5110458;27;20027;-69
2022/03/25 06:06:00;;;;;;;48.90;27.58;;;;;;;;;;5115393;27;20030;-70
2022/03/25 06:08:25;;;;;;;54.20;34.85;;;;;;;;;;5117648;28;20034;-71
2022/03/25 06:10:51;;;;;;;55.10;38.40;;;;;;;;;;5116700;27;20043;-74
2022/03/25 06:13:17;;;;;;;54.53;34.92;;;;;;;;;;5107054;27;20337;-73
2022/03/25 06:15:42;;;;;;;67.85;47.30;;;;;;;;;;5110635;27;20038;-71
2022/03/25 06:18:08;;;;;;;96.30;53.30;;;;;;;;;;5111758;27;20047;-72
2022/03/25 06:20:34;;;;;;;67.18;39.22;;;;;;;;;;5103395;27;20115;-70
2022/03/25 06:22:59;;;;;;;72.93;44.20;;;;;;;;;;5111530;27;20035;-72
2022/03/25 06:25:24;;;;;;;95.32;52.65;;;;;;;;;;5114425;28;20027;-74
2022/03/25 06:27:52;;;;;;;53.90;29.67;;;;;;;;;;5113765;28;20442;-74
2022/03/25 06:30:18;;;;;;;49.50;29.02;;;;;;;;;;5116245;27;20043;-73
2022/03/25 06:32:43;;;;;;;84.40;47.10;;;;;;;;;;5115090;27;20055;-78
2022/03/25 06:35:09;;;;;;;100.43;54.45;;;;;;;;;;5112984;27;20055;-74
2022/03/25 06:37:35;;;;;;;153.18;85.43;;;;;;;;;;5113869;27;20321;-74
2022/03/25 06:40:01;;;;;;;128.45;71.15;;;;;;;;;;5106214;27;20023;-72
2022/03/25 06:42:26;;;;;;;107.88;57.05;;;;;;;;;;5104678;27;20032;-71
2022/03/25 06:44:51;;;;;;;124.15;67.85;;;;;;;;;;5103833;27;20027;-73
2022/03/25 06:47:17;;;;;;;113.72;64.68;;;;;;;;;;5102513;28;20025;-72
2022/03/25 06:49:42;;;;;;;72.65;42.90;;;;;;;;;;5108107;27;20558;-72
2022/03/25 06:52:08;;;;;;;87.70;52.40;;;;;;;;;;5113424;28;20647;-73
2022/03/25 06:54:34;;;;;;;80.82;46.97;;;;;;;;;;5115237;27;20051;-71
2022/03/25 06:57:01;;;;;;;62.60;37.08;;;;;;;;;;5115685;28;20031;-76
2022/03/25 06:59:26;;;;;;;73.50;39.47;;;;;;;;;;5114957;27;20019;-71
2022/03/25 07:01:52;;;;;;;69.95;35.70;;;;;;;;;;5108417;27;20047;-71
2022/03/25 07:04:17;;;;;;;110.68;62.55;;;;;;;;;;5118857;27;20031;-71
2022/03/25 07:06:45;;;;;;;131.07;75.70;;;;;;;;;;5109838;27;20047;-73
2022/03/25 07:09:10;;;;;;;61.78;35.40;;;;;;;;;;5107891;27;20027;-72
2022/03/25 07:11:36;;;;;;;62.70;38.80;;;;;;;;;;5105262;27;20391;-73
2022/03/25 07:14:02;;;;;;;47.78;28.95;;;;;;;;;;5108242;27;20031;-74
2022/03/25 07:16:27;;;;;;;44.00;25.73;;;;;;;;;;5107088;27;20027;-73
2022/03/25 07:18:53;;;;;;;29.52;20.75;;;;;;;;;;5106778;27;20419;-73
2022/03/25 07:21:18;;;;;;;24.33;14.45;;;;;;;;;;5107091;27;20086;-74
2022/03/25 07:23:44;;;;;;;19.77;11.80;;;;;;;;;;5106888;27;20035;-72
2022/03/25 07:26:09;;;;;;;27.05;15.68;;;;;;;;;;5106515;27;20110;-69
2022/03/25 07:28:35;;;;;;;34.45;19.92;;;;;;;;;;5115996;27;20065;-70
2022/03/25 07:31:00;;;;;;;25.77;15.65;;;;;;;;;;5116546;27;20074;-68
2022/03/25 07:33:25;;;;;;;34.58;19.65;;;;;;;;;;5117752;27;20023;-66
2022/03/25 07:35:51;;;;;;;25.60;14.60;;;;;;;;;;5114344;27;20112;-70
2022/03/25 07:38:16;;;;;;;33.13;16.63;;;;;;;;;;5104889;28;20099;-68
2022/03/25 07:40:41;;;;;;;34.50;17.88;;;;;;;;;;5102324;27;20062;-72
2022/03/25 07:43:07;;;;;;;22.98;15.23;;;;;;;;;;5106523;27;20639;-75
2022/03/25 07:45:33;;;;;;;21.45;13.02;;;;;;;;;;5106772;27;20450;-72
2022/03/25 07:47:58;;;;;;;22.40;13.27;;;;;;;;;;5107055;27;20394;-72
2022/03/25 07:50:23;;;;;;;24.45;12.60;;;;;;;;;;5104717;27;20521;-70
2022/03/25 07:52:49;;;;;;;30.33;14.02;;;;;;;;;;5105664;27;20347;-73
2022/03/25 07:55:17;;;;;;;23.85;13.60;;;;;;;;;;5106301;27;20071;-71
2022/03/25 07:57:42;;;;;;;24.63;13.80;;;;;;;;;;5108277;27;20335;-74
2022/03/25 08:00:11;;;;;;;29.65;16.15;;;;;;;;;;5105910;27;20063;-72
2022/03/25 08:02:52;;;;;;;24.87;12.17;;;;;;;;;;5108206;27;20451;-74
2022/03/25 08:05:17;;;;;;;22.08;11.02;;;;;;;;;;5118648;27;20259;-72
2022/03/25 08:07:49;;;;;;;19.15;11.35;;;;;;;;;;5105791;27;20026;-72
2022/03/25 08:10:16;;;;;;;21.92;11.95;;;;;;;;;;5113576;27;20030;-72
2022/03/25 08:12:42;;;;;;;24.83;13.80;;;;;;;;;;5112122;27;20446;-74
2022/03/25 08:15:07;;;;;;;18.58;10.32;;;;;;;;;;5106520;27;20038;-72
2022/03/25 08:17:45;;;;;;;29.55;14.68;;;;;;;;;;5108262;27;20027;-74
2022/03/25 08:20:11;;;;;;;25.63;14.07;;;;;;;;;;5107335;27;20047;-75
2022/03/25 08:22:37;;;;;;;23.50;12.77;;;;;;;;;;5107473;27;20433;-74
2022/03/25 08:27:49;;;;;;;13.57;8.98;;;;;;;;;;5106014;27;20046;-75
2022/03/25 08:30:14;;;;;;;21.85;12.73;;;;;;;;;;5105587;27;20027;-73
2022/03/25 08:32:39;;;;;;;17.73;12.57;;;;;;;;;;5108907;27;20167;-73
2022/03/25 08:35:05;;;;;;;23.23;12.23;;;;;;;;;;5110459;27;20100;-74
2022/03/25 08:37:30;;;;;;;12.73;8.95;;;;;;;;;;5115541;27;20054;-75
2022/03/25 08:39:56;;;;;;;22.00;11.98;;;;;;;;;;5105994;27;20411;-71
2022/03/25 08:42:21;;;;;;;13.38;8.68;;;;;;;;;;5115424;27;20031;-77
2022/03/25 08:44:46;;;;;;;15.25;9.73;;;;;;;;;;5109618;27;20035;-77
2022/03/25 08:47:12;;;;;;;18.20;8.57;;;;;;;;;;5114802;27;20107;-74
2022/03/25 08:49:37;;;;;;;19.95;11.20;;;;;;;;;;5109796;27;20044;-76
2022/03/25 08:52:03;;;;;;;14.65;8.27;;;;;;;;;;5103345;27;20435;-77
2022/03/25 08:54:28;;;;;;;17.55;9.77;;;;;;;;;;5111123;27;20027;-77
2022/03/25 08:56:54;;;;;;;13.13;7.60;;;;;;;;;;5105851;27;20027;-75
2022/03/25 08:59:19;;;;;;;10.55;7.35;;;;;;;;;;5102961;27;20055;-76
2022/03/25 09:01:45;;;;;;;13.77;7.72;;;;;;;;;;5105547;27;20127;-78
2022/03/25 09:04:10;;;;;;;12.82;7.85;;;;;;;;;;5104336;27;20038;-75
2022/03/25 09:06:35;;;;;;;11.63;7.53;;;;;;;;;;5105430;27;20019;-73
2022/03/25 09:09:01;;;;;;;107.30;47.47;;;;;;;;;;5103706;27;20031;-76
2022/03/25 09:11:26;;;;;;;24.73;12.38;;;;;;;;;;5105397;27;20027;-77
2022/03/25 09:13:52;;;;;;;25.00;16.25;;;;;;;;;;5103611;27;20790;-75
2022/03/25 09:16:17;;;;;;;18.77;11.68;;;;;;;;;;5101212;27;20269;-75
2022/03/25 09:18:43;;;;;;;14.13;9.38;;;;;;;;;;5101258;27;20449;-77
2022/03/25 09:21:08;;;;;;;11.20;6.60;;;;;;;;;;5101072;27;20101;-69
2022/03/25 09:23:34;;;;;;;16.05;9.00;;;;;;;;;;5111437;27;20035;-76
2022/03/25 09:26:00;;;;;;;13.35;8.07;;;;;;;;;;5110838;27;20019;-74
2022/03/25 09:28:26;;;;;;;11.20;7.50;;;;;;;;;;5112463;27;20106;-75
2022/03/25 09:30:51;;;;;;;13.77;9.02;;;;;;;;;;5111037;27;20517;-75
2022/03/25 09:33:17;;;;;;;13.02;7.95;;;;;;;;;;5114192;27;20207;-75
2022/03/25 09:35:42;;;;;;;7.68;5.05;;;;;;;;;;5111712;27;20409;-76
2022/03/25 09:38:08;;;;;;;12.05;7.38;;;;;;;;;;5118089;27;20031;-76
2022/03/25 09:40:33;;;;;;;9.05;6.35;;;;;;;;;;5114377;27;20050;-77
2022/03/25 09:42:59;;;;;;;13.85;6.88;;;;;;;;;;5115704;27;20032;-75
2022/03/25 09:45:25;;;;;;;24.25;10.50;;;;;;;;;;5117608;27;20022;-77
2022/03/25 09:47:51;;;;;;;10.82;7.15;;;;;;;;;;5111864;27;20027;-74
2022/03/25 09:50:18;;;;;;;26.48;12.57;;;;;;;;;;5113492;27;20051;-78
2022/03/25 09:52:45;;;;;;;21.13;8.73;;;;;;;;;;5101648;28;20075;-79
2022/03/25 09:55:11;;;;;;;14.18;7.70;;;;;;;;;;5098661;27;20434;-73
2022/03/25 09:57:37;;;;;;;13.77;6.95;;;;;;;;;;5103191;28;20023;-75
2022/03/25 10:00:04;;;;;;;12.30;7.15;;;;;;;;;;5103644;28;20327;-75
2022/03/25 10:02:29;;;;;;;14.68;8.00;;;;;;;;;;5108755;27;20034;-76
2022/03/25 10:04:57;;;;;;;12.38;6.53;;;;;;;;;;5112838;28;20023;-75
2022/03/25 10:07:27;;;;;;;11.75;6.53;;;;;;;;;;5109960;28;20034;-75
2022/03/25 10:10:11;;;;;;;8.45;5.93;;;;;;;;;;5109382;28;20149;-77
2022/03/25 10:12:37;;;;;;;12.10;6.43;;;;;;;;;;5105900;28;20023;-76
2022/03/25 10:15:15;;;;;;;10.55;6.50;;;;;;;;;;5112940;27;20458;-74
2022/03/25 10:17:46;;;;;;;12.85;8.65;;;;;;;;;;5106437;28;20053;-77
2022/03/25 10:20:12;;;;;;;12.15;7.15;;;;;;;;;;5104828;28;20035;-75
2022/03/25 10:22:37;;;;;;;14.93;9.43;;;;;;;;;;5114475;28;20479;-78
2022/03/25 10:25:09;;;;;;;12.32;8.45;;;;;;;;;;5116125;28;20042;-73
2022/03/25 10:27:34;;;;;;;10.07;6.65;;;;;;;;;;5113607;28;20054;-77
2022/03/25 10:30:03;;;;;;;10.05;4.82;;;;;;;;;;5112298;27;20465;-78
2022/03/25 10:32:28;;;;;;;11.88;8.35;;;;;;;;;;5105237;27;20061;-77
2022/03/25 10:35:03;;;;;;;15.75;8.32;;;;;;;;;;5107433;27;20058;-74
2022/03/25 10:37:28;;;;;;;13.35;7.55;;;;;;;;;;5109984;27;20091;-74
2022/03/25 10:39:54;;;;;;;10.05;7.85;;;;;;;;;;5116872;27;20027;-74
2022/03/25 10:42:19;;;;;;;14.82;8.93;;;;;;;;;;5117083;27;20147;-78
2022/03/25 10:44:45;;;;;;;9.77;6.53;;;;;;;;;;5119081;27;20062;-76
2022/03/25 10:47:21;;;;;;;8.70;6.05;;;;;;;;;;5112350;27;20019;-75
2022/03/25 10:49:47;;;;;;;24.13;14.85;;;;;;;;;;5107069;27;20636;-74
2022/03/25 10:52:24;;;;;;;15.98;11.25;;;;;;;;;;5116361;27;20038;-76
2022/03/25 10:54:50;;;;;;;15.20;10.30;;;;;;;;;;5115559;27;20027;-76
2022/03/25 10:57:17;;;;;;;10.77;7.60;;;;;;;;;;5118210;27;20028;-76
2022/03/25 10:59:42;;;;;;;13.02;8.80;;;;;;;;;;5114964;27;20138;-76
2022/03/25 11:02:08;;;;;;;13.68;9.70;;;;;;;;;;5117398;27;20130;-74
2022/03/25 11:04:34;;;;;;;10.50;7.05;;;;;;;;;;5112457;27;20028;-73
2022/03/25 11:07:03;;;;;;;11.93;7.68;;;;;;;;;;5109286;27;20032;-74
2022/03/25 11:09:29;;;;;;;8.90;6.90;;;;;;;;;;5111667;27;20508;-77
2022/03/25 11:11:55;;;;;;;12.25;8.38;;;;;;;;;;5115778;27;20023;-76
2022/03/25 11:14:21;;;;;;;16.40;10.75;;;;;;;;;;5114424;27;20027;-77
2022/03/25 11:16:47;;;;;;;14.73;10.10;;;;;;;;;;5115214;27;20020;-73
2022/03/25 11:19:13;;;;;;;13.98;9.30;;;;;;;;;;5113411;27;20020;-86
2022/03/25 11:21:40;;;;;;;13.70;9.23;;;;;;;;;;5111057;27;20039;-77
2022/03/25 11:24:07;;;;;;;12.00;6.88;;;;;;;;;;5116327;27;20088;-73
2022/03/25 11:26:36;;;;;;;8.98;6.13;;;;;;;;;;5115083;27;20414;-76
2022/03/25 11:29:06;;;;;;;11.77;7.70;;;;;;;;;;5114548;27;20024;-73
2022/03/25 11:31:31;;;;;;;;;;;;;;;;;;5115112;27;20035;-76
2022/03/25 11:34:04;;;;;;;15.40;11.30;;;;;;;;;;5109384;27;20379;-76
2022/03/25 11:36:29;;;;;;;13.80;9.60;;;;;;;;;;5107799;27;20046;-76
2022/03/25 11:39:35;;;;;;;10.27;7.53;;;;;;;;;;5105751;27;20415;-75
2022/03/25 11:42:03;;;;;;;7.35;6.07;;;;;;;;;;5052163;28;20048;-75
2022/03/25 11:44:29;;;;;;;7.50;5.72;;;;;;;;;;5108484;27;20031;-77
2022/03/25 11:47:03;;;;;;;16.73;11.63;;;;;;;;;;5116109;27;20042;-77
2022/03/25 11:49:30;;;;;;;8.63;5.63;;;;;;;;;;5118117;27;20058;-76
2022/03/25 11:51:55;;;;;;;6.75;4.68;;;;;;;;;;5116007;27;20121;-80
2022/03/25 11:54:36;;;;;;;10.82;6.85;;;;;;;;;;5111427;27;20137;-78
2022/03/25 11:57:03;;;;;;;11.25;6.30;;;;;;;;;;5112778;27;20039;-75
2022/03/25 11:59:45;;;;;;;9.93;6.50;;;;;;;;;;5112109;27;20027;-78
2022/03/25 12:02:23;;;;;;;10.85;7.20;;;;;;;;;;5114798;27;20042;-77
2022/03/25 12:04:48;;;;;;;11.48;7.28;;;;;;;;;;5118445;27;20490;-79
2022/03/25 12:07:16;;;;;;;14.75;10.43;;;;;;;;;;5115983;27;20055;-77
2022/03/25 12:09:43;;;;;;;12.25;8.13;;;;;;;;;;5116952;27;20038;-74
2022/03/25 12:12:09;;;;;;;10.45;6.05;;;;;;;;;;5114027;27;20036;-76
2022/03/25 12:14:36;;;;;;;5.18;3.67;;;;;;;;;;5113904;27;20034;-77
2022/03/25 12:17:08;;;;;;;7.65;6.43;;;;;;;;;;5106220;27;20091;-75
2022/03/25 12:19:38;;;;;;;9.23;6.05;;;;;;;;;;5110200;27;20073;-77
2022/03/25 12:22:25;;;;;;;12.70;7.32;;;;;;;;;;5104757;27;20126;-73
2022/03/25 12:24:54;;;;;;;9.32;5.75;;;;;;;;;;5112264;27;20070;-76
2022/03/25 12:27:20;;;;;;;8.63;5.13;;;;;;;;;;5106608;27;20057;-77
2022/03/25 12:29:51;;;;;;;7.10;4.80;;;;;;;;;;5108200;27;20035;-77
2022/03/25 12:32:18;;;;;;;7.50;5.10;;;;;;;;;;5114288;27;20395;-78
2022/03/25 12:34:49;;;;;;;9.15;5.55;;;;;;;;;;5105820;27;20019;-79
2022/03/25 12:37:38;;;;;;;8.70;4.70;;;;;;;;;;5108044;27;20038;-73
2022/03/25 12:40:13;;;;;;;6.27;4.87;;;;;;;;;;5076531;27;20451;-74
2022/03/25 12:42:39;;;;;;;7.53;5.13;;;;;;;;;;5114969;27;20050;-78
2022/03/25 12:45:05;;;;;;;7.97;4.80;;;;;;;;;;5112741;27;20043;-76
2022/03/25 12:47:31;;;;;;;6.20;4.68;;;;;;;;;;5109473;27;20034;-75
2022/03/25 12:49:58;;;;;;;11.23;6.10;;;;;;;;;;5118267;27;20043;-79
2022/03/25 12:52:24;;;;;;;7.40;4.93;;;;;;;;;;5127154;27;20044;-79
2022/03/25 12:54:49;;;;;;;6.32;4.40;;;;;;;;;;5120668;27;20376;-76
2022/03/25 12:57:15;;;;;;;5.57;4.57;;;;;;;;;;5111180;27;20023;-74
2022/03/25 12:59:40;;;;;;;8.23;5.50;;;;;;;;;;5113115;27;20031;-76
2022/03/25 13:02:06;;;;;;;7.38;4.75;;;;;;;;;;5103522;27;20031;-81
2022/03/25 13:04:32;;;;;;;6.82;5.03;;;;;;;;;;5114121;27;20069;-75
2022/03/25 13:07:11;;;;;;;12.25;7.72;;;;;;;;;;5112952;27;20034;-79
2022/03/25 13:09:50;;;;;;;9.98;6.32;;;;;;;;;;5107851;27;20040;-75
2022/03/25 13:12:26;;;;;;;9.88;5.28;;;;;;;;;;5115598;27;20058;-74
2022/03/25 13:14:52;;;;;;;8.00;4.97;;;;;;;;;;5112620;27;20454;-77
2022/03/25 13:17:24;;;;;;;7.82;5.75;;;;;;;;;;5114428;27;20042;-76
2022/03/25 13:19:54;;;;;;;8.32;5.88;;;;;;;;;;5104819;27;20453;-77
2022/03/25 13:22:20;;;;;;;10.35;5.80;;;;;;;;;;5102519;27;20053;-75
2022/03/25 13:24:55;;;;;;;5.97;4.25;;;;;;;;;;5114001;27;20019;-75
2022/03/25 13:27:20;;;;;;;6.07;5.00;;;;;;;;;;5115656;27;20030;-75
2022/03/25 13:29:46;;;;;;;7.93;5.25;;;;;;;;;;5117735;27;20023;-75
2022/03/25 13:32:12;;;;;;;8.98;5.85;;;;;;;;;;5116403;27;20096;-76
2022/03/25 13:34:37;;;;;;;6.82;5.40;;;;;;;;;;5116915;27;20110;-76
2022/03/25 13:37:03;;;;;;;7.50;5.20;;;;;;;;;;5118226;27;20142;-76
2022/03/25 13:39:32;;;;;;;5.63;4.43;;;;;;;;;;5118242;27;20023;-74
2022/03/25 13:42:00;;;;;;;9.20;6.60;;;;;;;;;;5117391;27;20038;-75
2022/03/25 13:44:25;;;;;;;11.82;8.65;;;;;;;;;;5116107;27;20033;-74
2022/03/25 13:46:55;;;;;;;9.75;5.65;;;;;;;;;;5116328;27;20118;-74
2022/03/25 13:49:22;;;;;;;6.57;4.40;;;;;;;;;;5117667;27;20058;-74
2022/03/25 13:51:47;;;;;;;11.43;6.72;;;;;;;;;;5113422;27;20024;-74
2022/03/25 13:54:13;;;;;;;12.25;7.55;;;;;;;;;;5115056;27;20041;-74
2022/03/25 13:56:46;;;;;;;10.50;6.75;;;;;;;;;;5117080;28;20036;-74
2022/03/25 13:59:22;;;;;;;14.52;6.85;;;;;;;;;;5115621;28;20027;-74
2022/03/25 14:01:47;;;;;;;9.75;4.93;;;;;;;;;;5116569;28;20123;-74
2022/03/25 14:04:16;;;;;;;11.50;8.27;;;;;;;;;;5117008;28;21448;-75
2022/03/25 14:06:46;;;;;;;16.85;9.73;;;;;;;;;;5112385;28;20023;-75
2022/03/25 14:09:32;;;;;;;19.98;11.40;;;;;;;;;;5118840;27;20127;-74
2022/03/25 14:11:59;;;;;;;14.00;8.80;;;;;;;;;;5116718;27;20067;-75
2022/03/25 14:14:29;;;;;;;15.48;9.50;;;;;;;;;;5121973;27;20034;-74
2022/03/25 14:16:55;;;;;;;20.77;12.43;;;;;;;;;;5120776;27;20023;-75
2022/03/25 14:19:21;;;;;;;25.40;15.70;;;;;;;;;;5119616;27;20058;-75